Date,TemperatureHighF,TemperatureAvgF,TemperatureLowF,DewpointHighF,DewpointAvgF,DewpointLowF,HumidityHigh,HumidityAvg,HumidityLow,PressureMaxIn,PressureMinIn,WindSpeedMaxMPH,WindSpeedAvgMPH,GustSpeedMaxMPH,PrecipitationSumIn
2013-1-1,20.0,11.3,1.0,6.0,-1.2,-9.0,62,57,44,30.10,29.96,5,1,7,0.00
2013-1-2,26.0,22.0,17.0,12.0,9.7,6.0,72,59,47,29.96,29.88,5,1,8,0.00
2013-1-3,28.0,22.9,14.0,18.0,13.0,4.0,68,65,63,30.06,29.90,6,2,8,0.00
2013-1-4,34.0,21.5,13.0,18.0,10.9,4.0,72,64,51,30.05,29.88,4,1,9,0.00
2013-1-5,36.0,24.0,12.0,23.0,14.1,3.0,73,66,54,30.05,29.75,5,1,8,0.00
2013-1-6,36.0,27.0,17.0,23.0,16.9,8.0,73,65,57,30.11,29.76,5,1,8,0.00
2013-1-7,40.0,27.7,16.0,25.0,17.1,7.0,73,64,49,30.09,29.81,7,2,9,0.00
2013-1-8,39.0,29.6,20.0,28.0,20.7,11.0,74,69,59,29.95,29.73,5,1,10,0.00
2013-1-9,42.0,35.1,26.0,40.0,23.3,17.0,100,63,48,30.30,29.74,10,2,13,0.00
2013-1-10,39.0,31.0,22.0,29.0,21.6,14.0,77,68,52,30.34,29.77,4,1,6,0.00
2013-1-11,42.0,38.5,35.0,37.0,31.1,26.0,82,75,68,29.78,29.45,8,1,8,0.00
2013-1-12,42.0,33.6,22.0,40.0,25.0,10.0,91,71,55,29.88,29.43,9,3,13,0.00
2013-1-13,22.0,18.2,11.0,10.0,6.7,0.0,62,60,56,30.06,29.82,6,2,9,0.00
2013-1-14,24.0,16.0,9.0,9.0,4.7,0.0,66,61,51,30.26,30.06,6,1,12,0.00
2013-1-15,33.0,21.1,11.0,15.0,9.2,2.0,76,60,45,30.24,29.87,5,2,8,0.00
2013-1-16,33.0,26.7,20.0,26.0,17.2,8.0,75,67,49,29.98,29.59,6,2,10,0.00
2013-1-17,24.0,18.5,14.0,8.0,3.9,0.0,61,52,42,30.23,29.98,10,2,10,0.00
2013-1-18,42.0,27.0,13.0,29.0,17.4,3.0,78,67,58,30.23,29.65,5,1,9,0.00
2013-1-19,46.0,32.0,11.0,33.0,22.1,-3.0,83,67,50,29.82,29.50,11,3,25,0.00
2013-1-20,18.0,10.8,5.0,-1.0,-4.3,-7.0,58,50,40,30.15,29.82,9,2,15,0.00
2013-1-21,9.0,2.7,-1.0,-4.0,-11.7,-17.0,63,50,40,30.12,29.97,10,2,13,0.00
2013-1-22,9.0,2.3,-3.0,-10.0,-12.9,-16.0,53,48,39,30.18,30.10,6,1,7,0.00
2013-1-23,21.0,9.9,2.0,8.0,-2.7,-10.0,64,56,49,30.30,29.93,4,1,10,0.00
2013-1-24,17.0,8.9,1.0,3.0,-4.9,-10.0,64,53,43,30.49,30.18,2,0,4,0.00
2013-1-25,26.0,19.3,14.0,15.0,9.7,3.0,74,66,57,30.18,29.79,6,1,9,0.00
2013-1-26,30.0,18.5,6.0,11.0,5.8,-4.0,64,57,42,30.23,30.04,6,1,6,0.00
2013-1-27,33.0,28.0,23.0,29.0,19.4,11.0,89,71,58,30.16,29.75,3,1,6,0.00
2013-1-28,39.0,35.3,33.0,31.0,29.6,28.0,88,80,70,29.83,29.68,1,0,2,0.00
2013-1-29,41.0,36.7,33.0,37.0,32.4,28.0,91,84,81,29.69,29.42,4,0,7,0.00
2013-1-30,34.0,27.3,18.0,29.0,20.8,9.0,82,76,68,29.49,29.29,0,0,0,0.00
2013-1-31,21.0,11.9,5.0,10.0,-0.2,-6.0,70,58,48,29.95,29.46,0,0,0,0.00
2013-2-1,15.0,5.5,-2.0,-3.0,-8.3,-14.0,61,53,35,30.12,29.96,4,0,10,0.00
2013-2-2,27.0,11.4,6.0,5.0,-2.2,-5.0,62,55,35,29.98,29.85,2,0,4,0.00
2013-2-3,27.0,14.6,9.0,6.0,1.7,-2.0,66,56,37,29.88,29.77,8,1,10,0.00
2013-2-4,30.0,15.1,8.0,5.0,-0.2,-4.0,61,51,31,29.88,29.76,2,0,7,0.00
2013-2-5,28.0,19.9,9.0,19.0,10.2,-3.0,75,66,57,29.96,29.59,4,1,6,0.00
2013-2-6,31.0,22.4,5.0,19.0,13.0,-5.0,78,67,53,30.06,29.96,3,0,5,0.00
2013-2-7,30.0,27.4,24.0,24.0,21.3,18.0,79,78,75,30.03,29.88,0,0,0,0.00
2013-2-8,37.0,22.7,14.0,18.0,11.8,4.0,77,64,39,30.23,30.03,1,0,2,0.00
2013-2-9,28.0,21.0,7.0,21.0,13.1,-3.0,77,71,62,30.22,29.94,4,1,5,0.00
2013-2-10,38.0,32.7,27.0,31.0,26.0,20.0,82,77,72,29.95,29.23,5,1,8,0.00
2013-2-11,38.0,32.2,28.0,31.0,24.6,19.0,79,73,68,29.84,29.22,9,3,15,0.00
2013-2-12,35.0,27.5,23.0,20.0,17.1,14.0,72,65,48,29.91,29.70,7,2,10,0.00
2013-2-13,45.0,31.3,21.0,27.0,21.6,14.0,76,68,49,29.70,29.54,4,0,7,0.00
2013-2-14,38.0,32.5,22.0,27.0,23.5,10.0,78,69,58,29.92,29.46,6,1,8,0.00
2013-2-15,31.0,18.7,11.0,11.0,4.8,-3.0,62,54,38,30.07,29.92,6,1,15,0.00
2013-2-16,31.0,16.1,5.0,4.0,-1.0,-7.0,58,47,30,30.05,30.00,4,1,7,0.00
2013-2-17,30.0,17.7,-1.0,12.0,0.9,-13.0,61,48,30,30.04,29.77,7,1,7,0.00
2013-2-18,45.0,32.6,23.0,30.0,21.8,11.0,75,64,49,29.77,29.38,9,2,12,0.00
2013-2-19,29.0,17.3,9.0,21.0,5.3,-5.0,73,59,42,30.03,29.41,11,3,13,0.00
2013-2-20,33.0,17.4,7.0,9.0,2.2,-4.0,65,52,33,30.24,30.03,6,1,8,0.00
2013-2-21,28.0,21.2,7.0,17.0,9.9,-4.0,77,62,49,30.32,30.00,5,1,7,0.00
2013-2-22,35.0,28.8,23.0,25.0,21.0,16.0,78,72,65,30.00,29.69,5,1,6,0.00
2013-2-23,39.0,30.3,28.0,23.0,20.6,17.0,75,67,52,29.79,29.68,9,1,10,0.00
2013-2-24,42.0,30.5,24.0,26.0,20.5,15.0,71,66,49,30.01,29.79,4,1,7,0.00
2013-2-25,41.0,31.3,20.0,25.0,19.9,11.0,71,63,52,30.04,29.95,3,0,4,0.00
2013-2-26,40.0,31.5,25.0,25.0,21.7,17.0,77,67,54,29.96,29.66,6,2,8,0.00
2013-2-27,35.0,32.4,30.0,28.0,24.3,22.0,77,72,66,29.75,29.62,4,1,6,0.00
2013-2-28,34.0,31.1,26.0,24.0,19.2,12.0,72,61,54,30.06,29.75,4,1,5,0.00
2013-3-1,37.0,28.3,21.0,16.0,12.5,5.0,64,52,37,30.16,30.05,3,1,3,0.00
2013-3-2,42.0,24.9,14.0,15.0,7.5,3.0,62,48,29,30.16,30.03,7,1,7,0.00
2013-3-3,44.0,24.9,10.0,12.0,5.0,-1.0,61,45,20,30.04,29.96,3,0,4,0.00
2013-3-4,38.0,26.6,14.0,16.0,11.0,1.0,63,52,40,30.01,29.95,3,0,5,0.00
2013-3-5,32.0,28.7,25.0,23.0,17.9,13.0,76,64,56,30.04,29.86,3,1,5,0.00
2013-3-6,40.0,30.3,23.0,24.0,18.7,11.0,72,62,50,30.19,30.04,4,1,7,0.00
2013-3-7,48.0,28.7,14.0,20.0,12.8,5.0,67,53,28,30.29,30.18,3,0,4,0.00
2013-3-8,47.0,32.3,19.0,25.0,18.4,9.0,68,57,40,30.31,30.14,6,1,8,0.00
2013-3-9,39.0,35.1,32.0,30.0,26.3,22.0,77,70,66,30.14,29.71,4,1,7,0.00
2013-3-10,39.0,36.9,32.0,32.0,29.5,24.0,77,74,71,29.77,29.63,3,1,5,0.00
2013-3-11,38.0,33.1,29.0,28.0,24.9,20.0,77,72,66,29.65,29.48,5,1,9,0.00
2013-3-12,37.0,30.4,24.0,23.0,19.0,12.0,74,63,47,29.91,29.64,4,2,12,0.00
2013-3-13,41.0,25.9,20.0,14.0,11.6,7.0,69,56,32,30.16,29.91,5,1,9,0.00
2013-3-14,44.0,29.8,16.0,24.0,15.8,6.0,71,57,32,30.16,29.91,5,1,6,0.00
2013-3-15,43.0,34.2,29.0,31.0,25.8,20.0,76,71,61,29.91,29.76,3,0,5,0.00
2013-3-16,45.0,28.8,20.0,21.0,14.0,9.0,74,55,34,30.00,29.77,6,1,8,0.00
2013-3-17,40.0,24.9,13.0,12.0,7.0,0.0,61,47,26,30.17,29.93,4,1,5,0.00
2013-3-18,37.0,27.1,20.0,26.0,17.6,9.0,72,67,60,29.93,29.46,4,0,5,0.00
2013-3-19,41.0,24.4,16.0,12.0,7.6,3.0,67,50,29,29.88,29.52,9,3,16,0.00
2013-3-20,35.0,20.1,10.0,5.0,1.1,-4.0,52,44,26,29.94,29.87,9,3,12,0.00
2013-3-21,47.0,24.5,11.0,15.0,6.1,-1.0,60,46,25,29.94,29.89,5,1,10,0.00
2013-3-22,52.0,30.6,13.0,19.0,11.1,2.0,61,46,25,29.95,29.90,4,0,8,0.00
2013-3-23,53.0,34.6,24.0,24.0,18.0,12.0,65,52,29,30.03,29.95,3,0,3,0.00
2013-3-24,38.0,33.0,30.0,22.0,20.0,19.0,66,58,47,29.98,29.76,4,1,5,0.00
2013-3-25,39.0,32.0,24.0,22.0,18.7,14.0,72,58,46,30.02,29.79,3,1,6,0.00
2013-3-26,48.0,37.4,30.0,26.0,21.1,18.0,61,52,40,30.14,30.02,4,1,7,0.00
2013-3-27,54.0,39.6,31.0,23.0,20.8,18.0,61,48,28,30.20,30.14,5,1,9,0.00
2013-3-28,58.0,40.2,24.0,26.0,19.7,15.0,69,46,24,30.24,30.17,5,1,6,0.00
2013-3-29,60.0,42.1,26.0,27.0,20.6,16.0,68,45,25,30.22,30.10,5,1,5,0.00
2013-3-30,46.0,39.9,36.0,37.0,27.7,-99.9,80,65,55,30.10,29.72,6,1,8,0.00
2013-3-31,51.0,39.3,32.0,36.0,27.3,15.0,77,63,41,29.83,29.61,7,2,14,0.00
2013-4-1,41.0,31.7,25.0,18.0,12.5,9.0,57,45,34,30.05,29.83,10,2,13,0.00
2013-4-2,47.0,33.8,23.0,20.0,14.3,11.0,61,46,29,30.20,30.04,6,2,10,0.00
2013-4-3,51.0,36.0,21.0,20.0,14.0,8.0,66,43,22,30.35,30.10,3,1,7,0.00
2013-4-4,54.0,42.3,32.0,34.0,24.1,17.0,57,48,42,30.10,29.88,8,2,10,0.00
2013-4-5,53.0,40.3,30.0,29.0,19.8,16.0,77,45,27,30.16,29.99,5,1,5,0.00
2013-4-6,48.0,39.3,32.0,37.0,30.3,25.0,80,70,55,30.03,29.42,6,1,10,0.00
2013-4-7,48.0,40.8,36.0,34.0,30.5,28.0,75,67,54,29.87,29.48,7,2,11,0.00
2013-4-8,41.0,38.2,37.0,33.0,30.2,28.0,75,73,70,29.93,29.67,2,1,5,0.00
2013-4-9,40.0,37.6,35.0,32.0,29.0,25.0,75,71,64,30.00,29.90,3,1,4,0.00
2013-4-10,40.0,35.3,30.0,31.0,26.9,19.0,79,71,51,30.04,29.88,6,1,6,0.00
2013-4-11,35.0,33.2,30.0,28.0,24.5,19.0,77,71,52,29.88,29.56,6,1,12,0.00
2013-4-12,41.0,34.7,30.0,30.0,26.6,23.0,77,73,61,29.66,29.49,2,0,4,0.00
2013-4-13,51.0,37.8,31.0,29.0,26.0,22.0,77,63,40,29.88,29.65,9,2,11,0.00
2013-4-14,36.0,32.9,28.0,29.0,25.2,20.0,77,73,65,29.91,29.54,6,1,8,0.00
2013-4-15,58.0,43.9,36.0,41.0,30.4,26.0,74,60,38,29.85,29.51,9,2,13,0.00
2013-4-16,52.0,41.8,36.0,31.0,27.8,26.0,69,58,43,30.22,29.85,6,1,9,0.00
2013-4-17,41.0,37.2,33.0,32.0,28.5,25.0,79,71,64,30.25,29.83,3,1,7,0.00
2013-4-18,41.0,39.0,37.0,34.0,31.3,29.0,76,74,71,29.84,29.21,4,1,10,0.00
2013-4-19,41.0,35.6,29.0,33.0,25.1,16.0,78,66,49,29.80,29.15,10,2,14,0.00
2013-4-20,49.0,37.1,27.0,18.0,15.3,-99.9,68,45,25,30.26,29.80,6,1,8,0.00
2013-4-21,42.0,36.3,31.0,32.0,26.4,17.0,78,67,52,30.36,30.09,5,1,8,0.00
2013-4-22,49.0,45.7,42.0,41.0,37.7,32.0,78,74,68,30.12,29.90,5,1,6,0.00
2013-4-23,47.0,41.3,35.0,39.0,30.8,23.0,76,66,55,29.94,29.80,5,1,8,0.00
2013-4-24,60.0,44.1,30.0,33.0,24.9,22.0,74,51,27,29.93,29.83,8,1,12,0.00
2013-4-25,55.0,44.4,36.0,34.0,29.6,25.0,76,58,36,30.15,29.83,6,1,9,0.00
2013-4-26,72.0,55.4,37.0,44.0,34.9,25.0,73,48,28,30.14,29.98,8,3,11,0.00
2013-4-27,77.0,62.0,48.0,50.0,44.3,41.0,77,54,35,30.10,29.93,7,2,7,0.00
2013-4-28,77.0,61.9,46.0,48.0,40.6,38.0,75,49,27,29.93,29.70,5,1,8,0.00
2013-4-29,74.0,63.6,55.0,53.0,48.5,40.0,78,59,44,29.75,29.64,6,1,10,0.00
2013-4-30,86.0,72.4,58.0,56.0,52.1,40.0,83,53,32,29.86,29.56,11,3,12,0.00
2013-5-1,75.0,60.5,45.0,57.0,41.2,32.0,100,51,31,30.24,29.86,5,2,10,0.00
2013-5-2,44.0,39.6,35.0,34.0,30.6,28.0,80,70,63,30.28,30.18,4,2,7,0.00
2013-5-3,44.0,37.9,33.0,41.0,33.6,28.0,88,84,77,30.19,29.97,4,1,4,0.00
2013-5-4,74.0,58.3,44.0,49.0,43.5,40.0,88,62,31,30.02,29.95,4,1,5,0.00
2013-5-5,76.0,61.1,49.0,45.0,41.5,39.0,68,51,28,30.04,29.96,4,0,4,0.00
2013-5-6,82.0,62.8,47.0,47.0,40.0,35.0,73,48,24,30.03,29.94,2,0,4,0.00
2013-5-7,86.0,67.7,49.0,47.0,37.3,30.0,69,38,14,30.01,29.92,6,0,6,0.00
2013-5-8,88.0,69.4,51.0,47.0,40.2,35.0,64,38,20,29.97,29.89,3,0,4,0.00
2013-5-9,63.0,57.1,45.0,53.0,47.2,40.0,87,71,43,29.93,29.87,3,1,6,0.00
2013-5-10,65.0,50.3,41.0,45.0,37.0,-99.9,86,66,38,29.95,29.83,2,1,4,0.00
2013-5-11,53.0,48.5,40.0,44.0,33.2,21.0,83,59,31,29.94,29.72,8,2,14,0.00
2013-5-12,57.0,46.8,36.0,27.0,22.0,17.0,62,40,24,30.04,29.94,7,2,11,0.00
2013-5-13,70.0,54.6,33.0,34.0,25.4,19.0,63,35,17,30.09,29.79,4,1,7,0.00
2013-5-14,83.0,66.6,48.0,53.0,43.4,34.0,64,45,26,29.79,29.45,4,1,7,0.00
2013-5-15,81.0,69.7,61.0,52.0,41.9,38.0,58,38,22,29.81,29.46,5,1,9,0.00
2013-5-16,68.0,58.7,53.0,50.0,42.6,36.0,72,57,35,29.96,29.77,3,0,4,0.00
2013-5-17,60.0,53.8,50.0,50.0,38.6,-99.9,84,70,41,30.05,29.94,3,1,5,0.00
2013-5-18,76.0,61.1,52.0,61.0,52.6,47.0,82,74,59,30.03,29.86,3,1,4,0.00
2013-5-19,84.0,73.2,61.0,64.0,59.3,55.0,85,64,42,29.88,29.63,6,1,10,0.00
2013-5-20,87.0,74.9,64.0,62.0,58.2,54.0,85,58,34,29.72,29.57,7,1,11,0.00
2013-5-21,80.0,70.5,63.0,65.0,57.7,54.0,81,65,46,29.65,29.51,5,1,9,0.00
2013-5-22,65.0,59.7,53.0,57.0,54.0,48.0,88,82,67,29.80,29.61,2,0,4,0.00
2013-5-23,64.0,53.6,44.0,49.0,37.1,28.0,87,58,28,30.25,29.80,4,1,5,0.00
2013-5-24,72.0,57.3,40.0,38.0,33.9,30.0,68,44,24,30.37,30.22,4,0,5,0.00
2013-5-25,72.0,59.5,49.0,41.0,37.5,35.0,68,46,27,30.31,30.22,4,0,5,0.00
2013-5-26,74.0,60.4,46.0,42.0,37.3,35.0,66,44,29,30.24,30.10,3,1,5,0.00
2013-5-27,62.0,57.0,54.0,50.0,43.9,35.0,84,63,46,30.11,29.86,3,1,9,0.00
2013-5-28,59.0,55.5,53.0,55.0,51.5,48.0,89,86,83,29.86,29.67,3,0,4,0.00
2013-5-29,86.0,67.8,58.0,86.0,60.0,55.0,100,79,40,29.83,29.73,2,0,6,0.00
2013-5-30,86.0,72.7,64.0,69.0,64.9,61.0,100,78,49,29.80,29.64,6,1,11,0.00
2013-5-31,84.0,74.3,63.0,63.0,59.3,56.0,86,61,44,29.69,29.60,6,2,10,0.00
2013-6-1,80.0,72.1,63.0,61.0,56.6,53.0,75,59,41,29.63,29.55,7,1,10,0.00
2013-6-2,63.0,56.4,47.0,42.0,40.9,36.0,68,57,45,29.96,29.79,2,0,4,0.00
2013-6-3,78.0,63.4,46.0,51.0,43.4,40.0,81,53,28,30.00,29.93,3,0,5,0.00
2013-6-4,56.0,55.6,55.0,51.0,48.1,44.0,84,76,66,30.13,30.06,3,0,3,0.00
2013-6-9,57.0,56.1,55.0,51.0,50.1,49.0,80,79,79,29.93,29.91,1,0,2,0.00
2013-6-30,83.0,77.7,67.0,51.0,45.0,40.0,56,33,23,30.03,29.96,2,0,4,0.00
2013-7-1,87.0,70.6,58.0,60.0,52.1,48.0,71,55,28,30.11,30.03,2,0,3,0.00
2013-7-2,82.0,68.9,58.0,52.0,47.8,44.0,65,49,27,30.11,30.03,2,0,4,0.00
2013-7-3,78.0,69.2,58.0,58.0,51.1,43.0,66,54,39,30.06,29.97,1,0,2,0.00
2013-7-4,87.0,80.2,63.0,60.0,58.0,56.0,79,48,37,29.97,29.93,2,0,4,0.00
2013-7-5,94.0,80.0,64.0,62.0,58.0,54.0,78,50,29,29.98,29.90,4,1,7,0.00
2013-7-6,93.0,73.5,66.0,63.0,60.2,59.0,78,66,34,29.95,29.87,4,1,5,0.00
2013-7-7,94.0,80.0,69.0,69.0,64.7,61.0,80,62,38,29.90,29.83,5,1,6,0.00
2013-7-8,82.0,78.4,77.0,70.0,68.5,67.0,74,72,68,29.90,29.82,3,1,5,0.00
2013-7-10,73.0,73.0,73.0,66.0,66.0,66.0,79,79,78,29.78,29.77,2,1,3,0.00
2013-7-11,85.0,84.7,84.0,58.0,57.3,57.0,42,39,38,30.06,30.06,0,0,1,0.00
2013-7-21,70.0,67.6,65.0,60.0,59.1,58.0,81,74,67,29.92,29.85,2,0,3,0.00
2013-7-30,80.0,73.5,67.0,60.0,58.1,55.0,74,59,43,30.11,30.01,3,0,5,0.00
2013-7-31,81.0,69.5,64.0,65.0,60.7,58.0,84,74,58,30.03,29.89,3,0,4,0.00
2013-8-1,81.0,68.1,57.0,58.0,53.1,51.0,82,62,38,29.93,29.84,2,0,6,0.00
2013-8-2,83.0,68.8,59.0,63.0,53.0,50.0,84,60,34,29.93,29.78,3,0,4,0.00
2013-8-3,80.0,72.4,58.0,55.0,49.6,47.0,77,46,31,30.05,29.99,5,0,8,0.00
2013-8-4,80.0,69.8,55.0,54.0,48.3,46.0,75,49,32,30.19,30.05,2,0,4,0.00
2013-8-5,76.0,67.3,59.0,61.0,57.3,50.0,81,71,54,30.02,29.79,4,0,7,0.00
2013-8-6,88.0,72.0,66.0,63.0,61.1,58.0,85,71,37,29.82,29.69,3,0,5,0.00
2013-8-7,81.0,68.2,62.0,62.0,55.1,48.0,85,65,43,29.96,29.68,1,0,8,0.00
2013-8-8,83.0,72.4,54.0,58.0,51.4,46.0,81,50,33,30.00,29.93,3,0,4,0.00
2013-8-9,83.0,68.2,62.0,59.0,53.0,49.0,79,61,34,30.03,29.91,4,0,7,0.00
2013-8-10,77.0,69.1,63.0,55.0,52.5,49.0,70,56,41,30.11,30.03,3,0,3,0.00
2013-8-11,72.0,65.3,59.0,61.0,57.3,52.0,84,76,65,30.07,29.97,2,0,3,0.00
2013-8-15,83.0,56.4,55.0,57.0,23.5,-99.9,81,47,34,30.08,30.02,2,0,4,0.00
2013-8-16,85.0,62.7,55.0,57.0,39.8,-99.9,79,56,27,30.12,30.07,2,0,2,0.00
2013-8-17,87.0,66.2,57.0,59.0,47.2,-99.9,79,59,30,30.19,30.09,1,0,2,0.00
2013-8-18,87.0,69.0,58.0,56.0,53.1,50.0,79,60,31,30.15,30.01,1,0,4,0.00
2013-8-19,87.0,59.1,59.0,62.0,32.5,-99.9,83,60,32,30.01,29.93,2,0,7,0.00
2013-8-20,93.0,75.7,65.0,68.0,58.5,-99.9,82,61,36,29.98,29.90,5,1,7,0.00
2013-8-21,95.0,79.6,69.0,70.0,66.3,63.0,82,66,42,29.94,29.83,4,1,6,0.00
2013-8-22,86.0,74.3,65.0,63.0,57.6,54.0,87,60,33,30.06,29.97,2,0,3,0.00
2013-8-23,88.0,71.5,61.0,59.0,55.8,53.0,77,60,34,30.14,30.06,2,0,4,0.00
2013-8-24,91.0,71.7,61.0,66.0,55.7,-99.9,74,61,37,30.17,30.06,3,0,7,0.00
2013-8-25,98.0,82.7,70.0,70.0,67.2,64.0,83,62,40,30.08,29.97,5,1,7,0.00
2013-8-26,96.0,83.8,71.0,74.0,68.5,62.0,85,61,45,30.10,29.88,4,1,7,0.00
2013-8-27,85.0,77.7,75.0,73.0,70.9,69.0,85,80,65,29.88,29.81,1,0,3,0.00
2013-8-28,90.0,88.5,87.0,68.0,66.5,65.0,53,48,46,29.99,29.97,2,0,3,0.00
2013-8-29,93.0,82.3,69.0,67.0,64.7,63.0,84,58,40,30.03,29.90,3,0,4,0.00
2013-8-30,88.0,80.8,74.0,72.0,66.2,61.0,84,62,45,29.89,29.78,2,0,6,0.00
2013-8-31,86.0,68.1,62.0,63.0,55.3,-99.9,85,69,45,29.86,29.74,1,0,3,0.00
2013-9-1,83.0,72.7,67.0,68.0,61.1,57.0,87,68,44,29.82,29.70,1,0,6,0.00
2013-9-2,69.0,63.9,57.0,58.0,51.3,47.0,76,64,54,29.97,29.82,3,0,5,0.00
2013-9-3,79.0,62.1,49.0,51.0,47.4,42.0,82,61,34,30.02,29.94,4,0,5,0.00
2013-9-4,85.0,67.7,55.0,62.0,54.9,48.0,80,65,45,30.10,29.95,3,0,4,0.00
2013-9-5,80.0,65.6,57.0,58.0,51.8,48.0,81,63,34,30.23,30.10,2,0,3,0.00
2013-9-6,91.0,67.3,55.0,62.0,51.5,45.0,70,58,38,30.15,29.90,2,0,4,0.00
2013-9-14,76.0,62.5,46.0,46.0,39.4,-99.9,76,47,31,30.07,29.91,1,0,4,0.00
2013-9-15,65.0,58.7,52.0,54.0,50.0,41.0,85,73,59,30.22,29.89,2,0,4,0.00
2013-9-16,67.0,53.4,42.0,42.0,39.4,35.0,79,61,35,30.35,30.22,1,0,3,0.00
2013-9-17,72.0,62.3,49.0,54.0,50.1,41.0,80,65,44,30.27,30.01,3,0,6,0.00
2013-9-18,68.0,59.8,58.0,64.0,55.3,53.0,88,85,80,30.01,29.80,1,0,3,0.00
2013-9-19,87.0,73.7,67.0,70.0,66.8,64.0,95,80,55,29.80,29.63,7,1,7,0.00
2013-9-20,70.0,65.6,58.0,64.0,58.4,49.0,89,78,61,29.77,29.65,5,1,9,0.00
2013-9-21,60.0,54.1,49.0,48.0,42.2,-99.9,81,67,55,29.91,29.77,3,0,7,0.00
2013-9-22,66.0,55.1,42.0,42.0,40.5,36.0,79,60,38,30.02,29.92,1,0,3,0.00
2013-9-23,72.0,56.5,44.0,50.0,45.0,38.0,82,67,46,30.05,29.97,1,0,5,0.00
2013-9-24,76.0,60.1,48.0,54.0,47.7,42.0,85,66,40,30.00,29.91,2,0,3,0.00
2013-9-25,74.0,62.2,47.0,53.0,49.2,41.0,81,64,44,29.97,29.91,4,0,4,0.00
2013-9-26,77.0,62.3,49.0,56.0,50.6,43.0,88,68,43,30.02,29.94,3,0,6,0.00
2013-9-27,82.0,65.1,51.0,55.0,49.4,45.0,82,60,31,30.05,29.95,4,1,7,0.00
2013-9-28,79.0,63.8,56.0,64.0,50.4,-99.9,84,65,45,29.96,29.72,5,1,12,0.00
2013-9-29,73.0,59.3,49.0,52.0,47.2,45.0,85,66,39,29.97,29.87,3,0,4,0.00
2013-9-30,72.0,60.1,51.0,47.0,44.3,42.0,76,58,36,29.89,29.71,7,1,11,0.00
2013-10-1,67.0,61.8,58.0,44.0,42.2,40.0,52,49,44,29.89,29.83,0,0,1,0.00
2013-10-2,78.0,64.4,47.0,48.0,41.3,37.0,77,46,24,30.04,29.89,2,0,4,0.00
2013-10-3,73.0,62.3,56.0,58.0,49.6,37.0,85,65,42,29.90,29.80,2,0,7,0.00
2013-10-4,58.0,56.8,56.0,54.0,53.1,52.0,91,88,82,29.98,29.83,2,0,6,0.00
2013-10-5,63.0,59.7,56.0,61.0,57.6,53.0,95,93,91,29.91,29.67,3,1,4,0.00
2013-10-6,62.0,54.7,48.0,57.0,45.6,40.0,91,73,46,29.68,29.61,3,0,5,0.00
2013-10-7,66.0,52.9,46.0,48.0,43.1,40.0,85,71,42,29.98,29.63,3,1,7,0.00
2013-10-8,75.0,63.0,43.0,48.0,44.9,38.0,83,54,34,30.03,29.96,6,1,8,0.00
2013-10-9,74.0,60.3,51.0,51.0,46.5,44.0,79,62,42,30.11,30.00,3,0,7,0.00
2013-10-10,73.0,58.8,46.0,51.0,45.4,40.0,80,63,39,30.08,29.97,5,0,7,0.00
2013-10-18,48.0,45.0,40.0,44.0,39.3,34.0,86,80,73,29.83,29.69,5,0,7,0.00
2013-10-19,55.0,43.5,36.0,39.0,33.0,-99.9,83,72,43,29.79,29.60,3,0,6,0.00
2013-10-20,45.0,40.9,36.0,41.0,34.0,-99.9,88,81,74,29.74,29.58,4,0,8,0.00
2013-10-21,44.0,38.5,35.0,40.0,28.5,22.0,86,68,51,29.79,29.61,4,2,10,0.00
2013-10-22,49.0,38.1,32.0,31.0,25.4,23.0,75,61,44,29.88,29.77,3,1,6,0.00
2013-10-23,44.0,37.5,32.0,30.0,25.8,23.0,70,63,51,29.91,29.85,4,1,7,0.00
2013-10-24,46.0,38.3,34.0,28.0,25.2,23.0,69,60,47,30.16,29.90,8,1,9,0.00
2013-10-25,49.0,44.9,34.0,32.0,29.2,25.0,77,55,43,30.19,29.69,7,2,11,0.00
2013-10-26,51.0,45.8,42.0,36.0,26.6,-99.9,67,54,45,29.95,29.61,6,1,12,0.00
2013-10-27,55.0,43.7,33.0,31.0,29.1,25.0,75,57,38,29.98,29.75,3,1,7,0.00
2013-10-28,46.0,37.1,32.0,30.0,20.6,-99.9,69,56,40,30.34,29.99,4,1,6,0.00
2013-10-29,44.0,37.3,30.0,38.0,27.1,-99.9,79,69,63,30.33,30.05,3,0,4,0.00
2013-10-30,53.0,47.7,44.0,51.0,43.3,38.0,95,84,79,30.05,29.69,3,0,6,0.00
2013-10-31,56.0,52.0,45.0,53.0,49.2,41.0,93,91,87,29.69,29.21,3,0,7,0.00
2013-11-1,47.0,44.2,43.0,42.0,40.0,38.0,90,85,79,29.66,29.21,5,1,8,0.00
2013-11-2,45.0,41.1,35.0,38.0,33.6,-99.9,84,78,75,30.06,29.66,3,0,4,0.00
2013-11-3,48.0,40.4,32.0,38.0,32.6,27.0,86,74,58,30.17,30.05,4,1,7,0.00
2013-11-4,50.0,45.8,41.0,44.0,38.2,34.0,89,75,61,30.07,29.90,6,2,9,0.00
2013-11-5,52.0,44.8,37.0,42.0,38.8,32.0,86,79,61,30.16,29.79,3,0,5,0.00
2013-11-6,43.0,38.8,32.0,38.0,31.6,23.0,86,75,57,30.03,29.69,4,1,10,0.00
2013-11-7,42.0,34.2,29.0,26.0,24.3,23.0,77,67,51,30.09,30.03,6,1,8,0.00
2013-11-8,41.0,35.4,28.0,34.0,27.4,21.0,79,73,63,30.14,29.69,3,1,7,0.00
2013-11-10,49.0,42.0,38.0,31.0,28.2,26.0,68,58,44,30.18,29.95,7,2,10,0.00
2013-11-11,41.0,31.5,25.0,32.0,17.7,8.0,79,57,40,30.43,29.95,3,0,8,0.00
2013-11-12,31.0,25.1,20.0,13.0,11.0,9.0,65,55,42,30.56,30.37,3,1,8,0.00
2013-11-13,45.0,31.7,20.0,27.0,17.3,11.0,70,56,43,30.37,29.85,10,3,11,0.00
2013-11-14,50.0,40.1,33.0,35.0,26.0,18.0,72,57,44,29.85,29.73,3,1,7,0.00
2013-11-15,52.0,40.0,30.0,37.0,29.9,23.0,77,68,49,29.81,29.74,2,0,4,0.00
2013-11-16,54.0,44.5,39.0,53.0,38.5,-99.9,95,83,71,29.75,29.31,7,2,10,0.00
2013-11-17,54.0,47.4,39.0,53.0,43.3,30.0,100,86,70,29.51,29.16,11,2,16,0.00
2013-11-18,38.0,32.8,28.0,29.0,22.0,18.0,73,64,55,30.12,29.53,9,4,20,0.00
2013-11-19,40.0,33.0,25.0,26.0,21.7,18.0,73,63,48,30.23,30.07,4,1,7,0.00
2013-11-20,41.0,36.6,33.0,30.0,27.4,25.0,79,69,56,30.07,29.98,6,2,9,0.00
2013-11-21,41.0,37.8,34.0,34.0,31.6,27.0,79,78,75,30.20,29.99,3,0,4,0.00
2013-11-27,30.0,22.0,14.0,16.0,9.7,4.0,70,59,46,30.14,30.05,4,1,6,0.00
2013-11-28,30.0,24.5,18.0,17.0,14.4,9.0,72,65,53,30.34,30.00,2,0,5,0.00
2013-11-29,32.0,27.1,15.0,18.0,15.5,6.0,67,61,53,30.45,30.17,5,2,6,0.00
2013-11-30,40.0,33.1,26.0,27.0,21.4,-99.9,70,64,57,30.15,29.91,4,1,6,0.00
2013-12-1,40.0,32.8,27.0,28.0,23.2,19.0,74,67,58,30.04,29.88,2,0,2,0.00
2013-12-2,38.0,31.7,23.0,29.0,23.8,15.0,80,72,68,29.87,29.65,3,1,5,0.00
2013-12-3,35.0,33.4,30.0,28.0,26.5,23.0,78,75,74,29.71,29.63,1,0,3,0.00
2013-12-4,38.0,33.5,30.0,29.0,25.5,22.0,75,72,68,29.71,29.33,4,0,9,0.00
2013-12-5,33.0,20.9,10.0,25.0,10.7,0.0,72,64,51,30.10,29.46,2,0,6,0.00
2013-12-6,13.0,8.3,5.0,1.0,-1.4,-6.0,68,64,54,30.39,30.11,4,1,7,0.00
2013-12-7,11.0,4.2,3.0,-4.0,-29.5,-99.9,63,43,49,30.45,30.40,1,0,4,0.00
2013-12-8,15.0,13.4,8.0,7.0,4.4,-3.0,71,67,58,30.31,29.85,2,0,3,0.00
2013-12-9,16.0,10.6,1.0,9.0,0.2,-10.0,72,63,47,29.97,29.78,8,2,13,0.00
2013-12-10,15.0,9.3,3.0,0.0,-2.2,-7.0,68,59,50,30.04,29.69,4,1,13,0.00
2013-12-11,12.0,8.9,3.0,3.0,-1.8,-12.0,65,61,45,30.31,30.04,7,1,8,0.00
2013-12-12,21.0,13.4,2.0,10.0,2.3,-8.0,65,61,53,30.17,30.01,3,1,5,0.00
2013-12-13,21.0,17.2,13.0,10.0,5.4,2.0,68,59,54,30.14,30.01,3,1,5,0.00
2013-12-14,25.0,17.7,13.0,14.0,7.6,-99.9,72,68,61,30.13,29.80,4,1,9,0.00
2013-12-15,17.0,9.6,0.0,8.0,-1.4,-13.0,66,60,46,29.98,29.79,6,2,10,0.00
2013-12-16,16.0,13.9,1.0,9.0,3.8,-10.0,73,64,53,29.97,29.81,3,1,6,0.00
2013-12-17,34.0,25.2,16.0,25.0,16.2,7.0,77,68,56,29.93,29.70,6,2,11,0.00
2013-12-18,29.0,23.5,12.0,16.0,11.2,1.0,68,59,47,29.93,29.57,6,1,8,0.00
2013-12-19,30.0,23.6,18.0,20.0,14.8,10.0,73,69,64,29.91,29.64,3,1,4,0.00
2013-12-20,26.0,22.4,19.0,18.0,14.8,11.0,76,72,67,29.87,29.72,3,1,4,0.00
2013-12-21,30.0,26.1,24.0,23.0,17.8,-99.9,76,73,70,29.83,29.70,2,0,3,0.00
2013-12-22,28.0,25.4,23.0,20.0,17.5,16.0,76,71,62,29.99,29.70,3,0,3,0.00
2013-12-23,24.0,19.8,6.0,17.0,11.5,-4.0,74,70,60,30.25,29.99,2,0,4,0.00
2013-12-24,17.0,14.5,12.0,6.0,3.9,3.0,71,63,53,30.26,30.09,3,1,6,0.00
2013-12-25,22.0,17.2,12.0,15.0,9.0,4.0,73,70,65,30.09,29.91,3,1,5,0.00
2013-12-26,25.0,20.5,16.0,14.0,11.1,7.0,71,66,60,30.06,29.93,5,0,6,0.00
2013-12-27,36.0,32.4,19.0,28.0,24.3,11.0,75,72,65,30.06,29.80,5,1,7,0.00
2013-12-28,45.0,32.5,25.0,31.0,22.4,-99.9,79,69,57,29.89,29.61,3,1,6,0.00